Flight Track Log - Related Links

Times and Time Zones

All times are in EDT time to prevent confusion due to time zone crossing. See the N509QS flight status page for this flight to view local times or setup timezone preferences in your user account.

Time Position Orientation Groundspeed Altitude Reporting Facility
EDT Latitude Longitude Course Direction KTS MPH feet Rate Location/Type
Mon 08:38:39 AM 39.8667 -75.2833 247° West 180 207 1,000  Level Philadelphia TRACON
Mon 08:39:27 AM 39.8500 -75.3333 247° West 211 243 3,900 3,388 Climbing Philadelphia TRACON
Mon 08:41:06 AM 39.8483 -75.4839 269° West 284 327 9,300 2,302 Climbing New York Center
Mon 08:42:06 AM 39.8547 -75.5842 275° West 290 334 10,000 1,350 Climbing New York Center
Mon 08:43:06 AM 39.8661 -75.7122 277° West 311 358 12,000 2,281 Climbing New York Center
Mon 08:44:07 AM 39.8775 -75.8400 277° West 369 425 14,600 2,678 Climbing New York Center
Mon 08:45:07 AM 39.8914 -75.9981 277° West 401 461 17,400 2,370 Climbing New York Center
Mon 08:46:06 AM 39.9058 -76.1372 278° West 423 487 19,300 2,300 Climbing New York Center
Mon 08:47:07 AM 39.9131 -76.3003 273° West 443 510 22,000 2,508 Climbing New York Center
Mon 08:48:08 AM 39.9261 -76.4636 276° West 454 522 24,400 2,231 Climbing New York Center
Mon 08:49:08 AM 39.9386 -76.6325 276° West 467 537 26,500 2,085 Climbing New York Center
Mon 08:50:06 AM 39.9567 -76.8103 278° West 480 552 28,500 2,186 Climbing New York Center
Mon 08:51:06 AM 39.9767 -76.9908 278° West 490 564 30,800 2,350 Climbing New York Center
Mon 08:52:06 AM 39.9508 -77.1592 259° West 480 552 33,200 2,050 Climbing New York Center
Mon 08:53:06 AM 39.9039 -77.3308 250° West 493 567 34,900 2,038 Climbing New York Center
Mon 08:54:45 AM 39.8214 -77.6283 250° West 518 596 38,600 2,100 Climbing Washington Center
Mon 08:55:46 AM 39.7747 -77.7972 250° West 513 590 40,500 1,475 Climbing Washington Center
Mon 08:56:47 AM 39.7300 -77.9631 251° West 499 574 41,600 1,041 Climbing Washington Center
Mon 08:57:47 AM 39.6828 -78.1369 251° West 504 580 42,600 712 Climbing Washington Center
Mon 08:58:45 AM 39.6353 -78.3050 250° West 504 580 43,000 202 Climbing Washington Center
Mon 08:59:46 AM 39.5875 -78.4781 250° West 504 580 43,000  Level Washington Center
Mon 09:00:46 AM 39.5394 -78.6539 251° West 504 580 43,000  Level Washington Center
Mon 09:01:47 AM 39.4911 -78.8239 250° West 509 586 43,000  Level Washington Center
Mon 09:02:47 AM 39.4428 -78.9964 250° West 509 586 43,000  Level Washington Center
Mon 09:03:45 AM 39.3917 -79.1714 249° West 514 592 43,000  Level Washington Center
Mon 09:04:45 AM 39.3494 -79.3250 250° West 514 592 43,000  Level Washington Center
Mon 09:05:46 AM 39.3003 -79.4967 250° West 514 592 43,000  Level Washington Center
Mon 09:06:47 AM 39.2508 -79.6711 250° West 519 597 43,000  Level Washington Center
Mon 09:07:47 AM 39.1992 -79.8369 248° West 514 592 43,000  Level Washington Center
Mon 09:09:24 AM 39.1125 -80.1222 249° West 511 588 43,000  Level Indianapolis Center
Mon 09:10:26 AM 39.0619 -80.2914 249° West 508 585 43,000  Level Indianapolis Center
Mon 09:11:28 AM 39.0111 -80.4600 249° West 506 582 43,000  Level Indianapolis Center
Mon 09:12:30 AM 38.9503 -80.6625 249° West 504 580 43,000  Level Indianapolis Center
Mon 09:13:32 AM 38.8992 -80.8317 249° West 508 585 43,000  Level Indianapolis Center
Mon 09:14:34 AM 38.8478 -80.9989 249° West 505 581 43,000  Level Indianapolis Center
Mon 09:15:36 AM 38.7961 -81.1664 248° West 505 581 43,000  Level Indianapolis Center
Mon 09:16:37 AM 38.7444 -81.3342 248° West 506 582 43,000  Level Indianapolis Center
Mon 09:17:39 AM 38.6922 -81.5019 248° West 509 586 43,000  Level Indianapolis Center
Mon 09:18:41 AM 38.6300 -81.7011 248° West 514 592 43,000  Level Indianapolis Center
Mon 09:19:43 AM 38.5789 -81.8614 248° West 520 598 43,000  Level Indianapolis Center
Mon 09:20:45 AM 38.5258 -82.0283 248° West 511 588 43,000  Level Indianapolis Center
Mon 09:21:47 AM 38.4722 -82.1975 248° West 512 589 43,000  Level Indianapolis Center
Mon 09:22:49 AM 38.4075 -82.3992 248° West 513 590 43,000  Level Indianapolis Center
Mon 09:23:51 AM 38.3522 -82.5706 248° West 510 587 43,000  Level Indianapolis Center
Mon 09:24:53 AM 38.2975 -82.7356 247° West 508 585 43,000  Level Indianapolis Center
Mon 09:25:55 AM 38.2422 -82.9025 247° West 512 589 43,000  Level Indianapolis Center
Mon 09:26:57 AM 38.1883 -83.0697 248° West 512 589 43,000  Level Indianapolis Center
Mon 09:27:59 AM 38.1319 -83.2344 247° West 511 588 43,000  Level Indianapolis Center
Mon 09:29:01 AM 38.0697 -83.4275 248° West 508 585 43,000  Level Indianapolis Center
Mon 09:31:06 AM 37.9569 -83.7567 247° West 507 583 43,000  Level Indianapolis Center
Mon 09:32:08 AM 37.9017 -83.9206 247° West 506 582 43,000  Level Indianapolis Center
Mon 09:33:10 AM 37.8447 -84.0858 246° West 511 588 43,000  Level Indianapolis Center
Mon 09:34:12 AM 37.7789 -84.2775 247° West 511 588 43,000  Level Indianapolis Center
Mon 09:35:14 AM 37.7219 -84.4417 246° West 511 588 43,000  Level Indianapolis Center
Mon 09:36:16 AM 37.6658 -84.6053 247° West 512 589 43,000  Level Indianapolis Center
Mon 09:37:18 AM 37.6086 -84.7703 246° West 513 590 43,000  Level Indianapolis Center
Mon 09:38:20 AM 37.5497 -84.9358 246° West 516 594 43,000  Level Indianapolis Center
Mon 09:39:22 AM 37.4828 -85.1244 246° West 509 586 43,000  Level Indianapolis Center
Mon 09:40:24 AM 37.4247 -85.2867 246° West 508 585 43,000  Level Indianapolis Center
Mon 09:41:26 AM 37.3667 -85.4497 246° West 509 586 43,000  Level Indianapolis Center
Mon 09:42:28 AM 37.3136 -85.5981 246° West 509 586 43,000  Level Indianapolis Center
Mon 09:43:30 AM 37.2447 -85.7897 246° West 511 588 43,000  Level Indianapolis Center
Mon 09:44:32 AM 37.1858 -85.9500 245° Southwest 504 580 43,000  Level Indianapolis Center
Mon 09:45:34 AM 37.1275 -86.1083 245° Southwest 499 574 43,000  Level Indianapolis Center
Mon 09:46:36 AM 37.0697 -86.2683 246° West 500 575 43,000  Level Indianapolis Center
Mon 09:47:38 AM 37.0100 -86.4269 245° Southwest 501 577 43,000  Level Indianapolis Center
Mon 09:48:40 AM 36.9528 -86.5839 246° West 496 571 43,000  Level Indianapolis Center
Mon 09:49:42 AM 36.8828 -86.7692 245° Southwest 502 578 43,000  Level Indianapolis Center
Mon 09:50:44 AM 36.8236 -86.9289 245° Southwest 505 581 43,000  Level Indianapolis Center
Mon 09:51:46 AM 36.7636 -87.0881 245° Southwest 505 581 43,000  Level Indianapolis Center
Mon 09:52:48 AM 36.7039 -87.2467 245° Southwest 505 581 43,000  Level Indianapolis Center
Mon 09:53:50 AM 36.6431 -87.4053 244° Southwest 505 581 43,000  Level Indianapolis Center
Mon 09:55:03 AM 36.5639 -87.6158 245° Southwest 509 586 43,000  Level Memphis Center
Mon 09:56:03 AM 36.5047 -87.7753 245° Southwest 509 586 43,000  Level Memphis Center
Mon 09:57:02 AM 36.4492 -87.9139 244° Southwest 509 586 43,000  Level Memphis Center
Mon 09:58:03 AM 36.3897 -88.0678 244° Southwest 509 586 43,000  Level Memphis Center
Mon 09:59:03 AM 36.3236 -88.2292 243° Southwest 491 565 43,000  Level Memphis Center
Mon 10:00:03 AM 36.2617 -88.3828 243° Southwest 500 575 43,000  Level Memphis Center
Mon 10:01:03 AM 36.1994 -88.5386 244° Southwest 500 575 43,000  Level Memphis Center
Mon 10:02:03 AM 36.1389 -88.6889 244° Southwest 495 570 43,000  Level Memphis Center
Mon 10:03:03 AM 36.0783 -88.8417 244° Southwest 495 570 43,000  Level Memphis Center
Mon 10:04:03 AM 36.0156 -88.9917 243° Southwest 495 570 43,000  Level Memphis Center
Mon 10:05:03 AM 35.9525 -89.1492 244° Southwest 495 570 43,000  Level Memphis Center
Mon 10:06:03 AM 35.8914 -89.3014 244° Southwest 495 570 43,000  Level Memphis Center
Mon 10:07:03 AM 35.8300 -89.4558 244° Southwest 500 575 43,000  Level Memphis Center
Mon 10:08:03 AM 35.7683 -89.6075 243° Southwest 500 575 43,000  Level Memphis Center
Mon 10:09:03 AM 35.7067 -89.7614 244° Southwest 500 575 43,000  Level Memphis Center
Mon 10:10:03 AM 35.6594 -89.8972 247° West 483 556 43,000  Level Memphis Center
Mon 10:11:03 AM 35.5972 -90.0456 243° Southwest 494 568 43,000  Level Memphis Center
Mon 10:12:03 AM 35.5328 -90.1989 243° Southwest 494 568 43,000  Level Memphis Center
Mon 10:13:03 AM 35.4706 -90.3494 243° Southwest 494 568 43,000  Level Memphis Center
Mon 10:14:03 AM 35.4078 -90.4947 242° Southwest 489 563 43,000  Level Memphis Center
Mon 10:15:03 AM 35.3450 -90.6472 243° Southwest 496 571 43,000  Level Memphis Center
Mon 10:16:03 AM 35.2819 -90.7972 243° Southwest 496 571 43,000  Level Memphis Center
Mon 10:17:03 AM 35.2125 -90.9542 242° Southwest 490 564 43,000  Level Memphis Center
Mon 10:18:03 AM 35.1492 -91.1036 243° Southwest 490 564 43,000  Level Memphis Center
Mon 10:19:03 AM 35.0897 -91.2478 243° Southwest 495 570 43,000  Level Memphis Center
Mon 10:20:03 AM 35.0239 -91.3942 241° Southwest 495 570 43,000  Level Memphis Center
Mon 10:21:03 AM 34.9600 -91.5353 241° Southwest 490 564 43,000  Level Memphis Center
Mon 10:22:03 AM 34.8939 -91.6811 241° Southwest 496 571 43,000  Level Memphis Center
Mon 10:23:03 AM 34.8319 -91.8269 243° Southwest 491 565 43,000  Level Memphis Center
Mon 10:24:03 AM 34.7675 -91.9700 241° Southwest 491 565 43,000  Level Memphis Center
Mon 10:25:03 AM 34.7050 -92.1128 242° Southwest 491 565 43,000  Level Memphis Center
Mon 10:26:03 AM 34.6550 -92.2608 248° West 486 559 43,000  Level Memphis Center
Mon 10:27:03 AM 34.6128 -92.4164 252° West 486 559 43,000  Level Memphis Center
Mon 10:28:03 AM 34.5725 -92.5717 253° West 486 559 43,000  Level Memphis Center
Mon 10:29:03 AM 34.5300 -92.7269 252° West 486 559 43,000  Level Memphis Center
Mon 10:30:03 AM 34.4917 -92.8769 253° West 486 559 43,000  Level Memphis Center
Mon 10:31:03 AM 34.4531 -93.0294 253° West 481 554 43,000  Level Memphis Center
Mon 10:32:03 AM 34.4100 -93.1817 251° West 476 548 43,000  Level Memphis Center
Mon 10:33:03 AM 34.3669 -93.3339 251° West 481 554 43,000  Level Memphis Center
Mon 10:34:03 AM 34.3253 -93.4933 252° West 486 559 43,000  Level Memphis Center
Mon 10:35:26 AM 34.2747 -93.6914 253° West 477 549 43,000  Level Fort Worth Center
Mon 10:36:26 AM 34.2311 -93.8442 251° West 482 555 43,000  Level Fort Worth Center
Mon 10:37:26 AM 34.1894 -93.9964 252° West 488 562 43,000  Level Fort Worth Center
Mon 10:38:26 AM 34.1458 -94.1589 252° West 493 567 43,000  Level Fort Worth Center
Mon 10:39:26 AM 34.1017 -94.3133 251° West 493 567 43,000 -400 Level Fort Worth Center
Mon 10:40:26 AM 34.0594 -94.4678 252° West 493 567 42,200 -1,200 Descending Fort Worth Center
Mon 10:41:26 AM 34.0169 -94.6119 250° West 483 556 40,600 -1,800 Descending Fort Worth Center
Mon 10:42:26 AM 33.9761 -94.7536 251° West 471 542 38,600 -2,650 Descending Fort Worth Center
Mon 10:43:26 AM 33.9331 -94.8900 249° West 449 517 35,300 -3,100 Descending Fort Worth Center
Mon 10:44:26 AM 33.8942 -95.0339 252° West 449 517 32,400 -2,550 Descending Fort Worth Center
Mon 10:45:26 AM 33.8489 -95.1803 250° West 454 522 30,200 -2,250 Descending Fort Worth Center
Mon 10:46:26 AM 33.8036 -95.3339 251° West 465 535 27,900 -2,300 Descending Fort Worth Center
Mon 10:47:26 AM 33.7619 -95.4847 252° West 478 550 25,600 -2,281 Descending Fort Worth Center
Mon 10:48:27 AM 33.7122 -95.6356 248° West 467 537 23,300 -2,300 Descending Fort Worth Center
Mon 10:49:26 AM 33.6575 -95.7714 244° Southwest 454 522 21,000 -2,319 Descending Fort Worth Center
Mon 10:50:26 AM 33.6069 -95.8994 245° Southwest 441 507 18,700 -2,200 Descending Fort Worth Center
Mon 10:51:26 AM 33.5564 -96.0200 243° Southwest 421 484 16,600 -2,050 Descending Fort Worth Center
Mon 10:52:26 AM 33.5114 -96.1253 243° Southwest 407 468 14,600 -1,950 Descending Fort Worth Center
Mon 10:53:26 AM 33.4644 -96.2406 244° Southwest 369 425 12,700 -1,550 Descending Fort Worth Center
Mon 10:54:26 AM 33.4319 -96.3208 244° Southwest 329 379 11,500 -850 Descending Fort Worth Center
Mon 10:55:26 AM 33.3908 -96.4108 241° Southwest 295 339 11,000 -1,200 Descending Fort Worth Center
Mon 10:56:26 AM 33.3350 -96.4761 224° Southwest 280 322 9,100 -1,780 Descending Fort Worth Center
Mon 10:57:24 AM 33.2833 -96.5333 223° Southwest 279 321 7,500 -1,632 Descending Dallas / Fort Worth TRACON
Mon 10:58:31 AM 33.2500 -96.6333 248° West 280 322 5,700 -1,190 Descending Dallas / Fort Worth TRACON
Mon 10:59:30 AM 33.2500 -96.7167 270° West 265 305 5,000 -365 Descending Dallas / Fort Worth TRACON
Mon 11:00:26 AM 33.2347 -96.8000 258° West 272 313 5,000  Level Fort Worth Center
Mon 11:01:26 AM 33.2183 -96.8794 256° West 277 319 5,000  Level Fort Worth Center
Mon 11:02:26 AM 33.2042 -96.9764 260° West 277 319 5,000  Level Fort Worth Center
Mon 11:03:26 AM 33.1647 -97.0189 222° Southwest 232 267 5,000 -410 Level Fort Worth Center
Mon 11:04:23 AM 33.1167 -97.0167 178° South 191 220 4,200 -864 Descending Dallas / Fort Worth TRACON
Mon 11:05:24 AM 33.0667 -97.0167 180° South 164 189 3,300 -893 Descending Dallas / Fort Worth TRACON
Mon 11:06:24 AM 33.0167 -97.0167 180° South 174 200 2,400 -850 Descending Dallas / Fort Worth TRACON
Mon 11:07:24 AM 32.9667 -97.0167 180° South 153 176 1,600 -750 Descending Dallas / Fort Worth TRACON
Mon 11:08:24 AM 32.9333 -97.0167 180° South 128 147 900 -700 Descending Dallas / Fort Worth TRACON
Mon 11:10:00 AM 32.8968 -97.0380 232° Southwest  Level Estimated
Mon 11:17:00 AM 32.8968 -97.0380 232° Southwest  Level Estimated

Login

Don't have an account? Register now (free) for customized features, flight alerts, and more!